createdAt,value
2023-02-23T00:00:13.905Z,1001.82
2023-02-23T00:00:34.943Z,1001.80
2023-02-23T00:00:55.992Z,1001.80
2023-02-23T00:01:17.419Z,1001.80
2023-02-23T00:01:38.609Z,1001.80
2023-02-23T00:01:59.665Z,1001.78
2023-02-23T00:02:20.841Z,1001.78
2023-02-23T00:02:41.902Z,1001.82
2023-02-23T00:03:03.126Z,1001.80
2023-02-23T00:03:24.214Z,1001.80
2023-02-23T00:03:45.350Z,1001.82
2023-02-23T00:04:06.435Z,1001.82
2023-02-23T00:04:27.477Z,1001.78
2023-02-23T00:04:48.564Z,1001.80
2023-02-23T00:05:09.611Z,1001.80
2023-02-23T00:05:30.695Z,1001.80
2023-02-23T00:05:51.760Z,1001.80
2023-02-23T00:06:12.821Z,1001.80
2023-02-23T00:06:33.890Z,1001.80
2023-02-23T00:06:54.999Z,1001.80
2023-02-23T00:07:16.073Z,1001.84
2023-02-23T00:07:37.168Z,1001.84
2023-02-23T00:07:58.185Z,1001.82
2023-02-23T00:08:19.397Z,1001.82
2023-02-23T00:08:40.460Z,1001.80
2023-02-23T00:09:01.520Z,1001.78
2023-02-23T00:09:22.589Z,1001.80
2023-02-23T00:09:43.632Z,1001.82
2023-02-23T00:10:04.696Z,1001.82
2023-02-23T00:10:25.752Z,1001.80
2023-02-23T00:10:46.835Z,1001.80
2023-02-23T00:11:07.895Z,1001.78
2023-02-23T00:11:28.930Z,1001.80
2023-02-23T00:11:49.998Z,1001.80
2023-02-23T00:12:11.049Z,1001.80
2023-02-23T00:12:32.180Z,1001.80
2023-02-23T00:12:53.199Z,1001.80
2023-02-23T00:13:14.255Z,1001.78
2023-02-23T00:13:35.347Z,1001.82
2023-02-23T00:13:56.409Z,1001.80
2023-02-23T00:14:17.488Z,1001.80
2023-02-23T00:14:38.581Z,1001.80
2023-02-23T00:14:59.620Z,1001.80
2023-02-23T00:15:20.688Z,1001.80
2023-02-23T00:15:41.765Z,1001.78
2023-02-23T00:16:02.810Z,1001.78
2023-02-23T00:16:23.971Z,1001.78
2023-02-23T00:16:45.058Z,1001.78
2023-02-23T00:17:06.092Z,1001.78
2023-02-23T00:17:27.153Z,1001.76
2023-02-23T00:17:48.228Z,1001.78
2023-02-23T00:18:09.266Z,1001.78
2023-02-23T00:18:30.336Z,1001.76
2023-02-23T00:18:51.640Z,1001.78
2023-02-23T00:19:12.668Z,1001.76
2023-02-23T00:19:33.737Z,1001.76
2023-02-23T00:19:54.776Z,1001.76
2023-02-23T00:20:15.842Z,1001.76
2023-02-23T00:20:36.907Z,1001.74
2023-02-23T00:20:57.969Z,1001.78
2023-02-23T00:21:19.469Z,1001.74
2023-02-23T00:21:40.681Z,1001.78
2023-02-23T00:22:01.741Z,1001.76
2023-02-23T00:22:22.816Z,1001.76
2023-02-23T00:22:43.877Z,1001.74
2023-02-23T00:23:04.931Z,1001.76
2023-02-23T00:23:26.001Z,1001.72
2023-02-23T00:23:47.060Z,1001.74
2023-02-23T00:24:08.282Z,1001.72
2023-02-23T00:24:29.327Z,1001.72
2023-02-23T00:24:50.403Z,1001.72
2023-02-23T00:25:11.443Z,1001.72
2023-02-23T00:25:32.505Z,1001.72
2023-02-23T00:25:53.629Z,1001.72
2023-02-23T00:26:14.709Z,1001.74
2023-02-23T00:26:35.774Z,1001.74
2023-02-23T00:26:56.882Z,1001.72
2023-02-23T00:27:17.923Z,1001.72
2023-02-23T00:27:39.015Z,1001.74
2023-02-23T00:28:00.121Z,1001.72
2023-02-23T00:28:21.153Z,1001.72
2023-02-23T00:28:42.222Z,1001.74
2023-02-23T00:29:03.305Z,1001.72
2023-02-23T00:29:24.387Z,1001.70
2023-02-23T00:29:45.453Z,1001.72
2023-02-23T00:30:06.515Z,1001.72
2023-02-23T00:30:27.588Z,1001.72
2023-02-23T00:30:48.689Z,1001.70
2023-02-23T00:31:09.880Z,1001.72
2023-02-23T00:31:30.966Z,1001.72
2023-02-23T00:31:52.188Z,1001.70
2023-02-23T00:32:13.495Z,1001.72
2023-02-23T00:32:34.662Z,1001.72
2023-02-23T00:32:55.772Z,1001.72
2023-02-23T00:33:16.820Z,1001.72
2023-02-23T00:33:37.909Z,1001.72
2023-02-23T00:33:58.974Z,1001.72
2023-02-23T00:34:20.037Z,1001.72
2023-02-23T00:34:41.266Z,1001.72
2023-02-23T00:35:02.333Z,1001.70
2023-02-23T00:35:23.381Z,1001.70
2023-02-23T00:35:44.439Z,1001.74
2023-02-23T00:36:05.531Z,1001.72
2023-02-23T00:36:26.590Z,1001.70
2023-02-23T00:36:47.616Z,1001.72
2023-02-23T00:37:08.689Z,1001.74
2023-02-23T00:37:29.740Z,1001.72
2023-02-23T00:37:50.806Z,1001.70
2023-02-23T00:38:11.871Z,1001.74
2023-02-23T00:38:32.949Z,1001.74
2023-02-23T00:38:54.013Z,1001.74
2023-02-23T00:39:15.086Z,1001.74
2023-02-23T00:39:36.156Z,1001.78
2023-02-23T00:39:57.218Z,1001.74
2023-02-23T00:40:18.292Z,1001.74
2023-02-23T00:40:39.359Z,1001.80
2023-02-23T00:41:00.414Z,1001.80
2023-02-23T00:41:21.465Z,1001.72
2023-02-23T00:41:42.538Z,1001.74
2023-02-23T00:42:03.900Z,1001.78
2023-02-23T00:42:24.928Z,1001.78
2023-02-23T00:42:46.019Z,1001.82
2023-02-23T00:43:07.059Z,1001.80
2023-02-23T00:43:28.123Z,1001.78
2023-02-23T00:43:49.171Z,1001.78
2023-02-23T00:44:10.221Z,1001.78
2023-02-23T00:44:31.295Z,1001.78
2023-02-23T00:44:52.336Z,1001.78
2023-02-23T00:45:13.500Z,1001.78
2023-02-23T00:45:34.536Z,1001.78
2023-02-23T00:45:55.623Z,1001.76
2023-02-23T00:46:16.752Z,1001.78
2023-02-23T00:46:37.787Z,1001.78
2023-02-23T00:46:58.864Z,1001.78
2023-02-23T00:47:19.953Z,1001.80
2023-02-23T00:47:40.986Z,1001.78
2023-02-23T00:48:02.051Z,1001.78
2023-02-23T00:48:23.102Z,1001.80
2023-02-23T00:48:44.172Z,1001.78
2023-02-23T00:49:05.238Z,1001.78
2023-02-23T00:49:26.286Z,1001.84
2023-02-23T00:49:47.358Z,1001.78
2023-02-23T00:50:08.417Z,1001.80
2023-02-23T00:50:29.666Z,1001.80
2023-02-23T00:50:50.693Z,1001.80
2023-02-23T00:51:11.758Z,1001.78
2023-02-23T00:51:32.852Z,1001.80
2023-02-23T00:51:53.957Z,1001.82
2023-02-23T00:52:15.022Z,1001.82
2023-02-23T00:52:36.071Z,1001.80
2023-02-23T00:52:57.158Z,1001.80
2023-02-23T00:53:18.196Z,1001.82
2023-02-23T00:53:39.264Z,1001.80
2023-02-23T00:54:00.371Z,1001.78
2023-02-23T00:54:21.428Z,1001.82
2023-02-23T00:54:42.460Z,1001.80
2023-02-23T00:55:03.558Z,1001.80
2023-02-23T00:55:24.593Z,1001.78
2023-02-23T00:55:45.804Z,1001.80
2023-02-23T00:56:06.868Z,1001.78
2023-02-23T00:56:27.953Z,1001.80
2023-02-23T00:56:49.018Z,1001.80
2023-02-23T00:57:10.061Z,1001.80
2023-02-23T00:57:31.126Z,1001.78
2023-02-23T00:57:52.195Z,1001.78
2023-02-23T00:58:13.252Z,1001.76
2023-02-23T00:58:34.326Z,1001.80
2023-02-23T00:58:55.427Z,1001.76
2023-02-23T00:59:16.469Z,1001.76
2023-02-23T00:59:37.530Z,1001.80
2023-02-23T00:59:58.641Z,1001.80
2023-02-23T01:00:19.681Z,1001.78
2023-02-23T01:00:40.751Z,1001.78
2023-02-23T01:01:01.870Z,1001.80
2023-02-23T01:01:22.938Z,1001.78
2023-02-23T01:01:44.062Z,1001.78
2023-02-23T01:02:05.185Z,1001.78
2023-02-23T01:02:26.273Z,1001.76
2023-02-23T01:02:47.300Z,1001.74
2023-02-23T01:03:08.356Z,1001.76
2023-02-23T01:03:29.420Z,1001.78
2023-02-23T01:03:50.476Z,1001.76
2023-02-23T01:04:11.542Z,1001.74
2023-02-23T01:04:32.679Z,1001.76
2023-02-23T01:04:53.707Z,1001.76
2023-02-23T01:05:14.801Z,1001.74
2023-02-23T01:05:35.837Z,1001.76
2023-02-23T01:05:56.924Z,1001.76
2023-02-23T01:06:18.022Z,1001.76
2023-02-23T01:06:39.129Z,1001.72
2023-02-23T01:07:00.152Z,1001.74
2023-02-23T01:07:21.218Z,1001.78
2023-02-23T01:07:42.262Z,1001.76
2023-02-23T01:08:03.327Z,1001.76
2023-02-23T01:08:24.390Z,1001.78
2023-02-23T01:08:45.440Z,1001.78
2023-02-23T01:09:06.534Z,1001.76
2023-02-23T01:09:27.600Z,1001.78
2023-02-23T01:09:48.640Z,1001.76
2023-02-23T01:10:09.694Z,1001.76
2023-02-23T01:10:30.750Z,1001.76
2023-02-23T01:10:51.820Z,1001.76
2023-02-23T01:11:12.876Z,1001.74
2023-02-23T01:11:34.001Z,1001.78
2023-02-23T01:11:55.034Z,1001.76
2023-02-23T01:12:16.091Z,1001.74
2023-02-23T01:12:37.144Z,1001.76
2023-02-23T01:12:58.215Z,1001.76
2023-02-23T01:13:19.268Z,1001.78
2023-02-23T01:13:40.342Z,1001.76
2023-02-23T01:14:01.391Z,1001.76
2023-02-23T01:14:22.451Z,1001.78
2023-02-23T01:14:43.510Z,1001.78
2023-02-23T01:15:04.580Z,1001.78
2023-02-23T01:15:25.685Z,1001.78
2023-02-23T01:15:46.737Z,1001.80
2023-02-23T01:16:07.781Z,1001.80
2023-02-23T01:16:28.851Z,1001.76
2023-02-23T01:16:49.908Z,1001.78
2023-02-23T01:17:10.977Z,1001.80
2023-02-23T01:17:32.065Z,1001.76
2023-02-23T01:17:53.131Z,1001.78
2023-02-23T01:18:14.196Z,1001.78
2023-02-23T01:18:35.243Z,1001.78
2023-02-23T01:18:56.327Z,1001.76
2023-02-23T01:19:17.406Z,1001.78
2023-02-23T01:19:38.609Z,1001.78
2023-02-23T01:19:59.665Z,1001.78
2023-02-23T01:20:20.711Z,1001.80
2023-02-23T01:20:42.512Z,1001.80
2023-02-23T01:21:03.607Z,1001.80
2023-02-23T01:21:24.662Z,1001.80
2023-02-23T01:21:45.746Z,1001.80
2023-02-23T01:22:06.972Z,1001.80
2023-02-23T01:22:28.029Z,1001.78
2023-02-23T01:22:49.082Z,1001.78
2023-02-23T01:23:10.145Z,1001.78
2023-02-23T01:23:31.228Z,1001.78
2023-02-23T01:23:52.341Z,1001.78
2023-02-23T01:24:13.369Z,1001.78
2023-02-23T01:24:34.446Z,1001.74
2023-02-23T01:24:55.492Z,1001.80
2023-02-23T01:25:16.585Z,1001.78
2023-02-23T01:25:37.620Z,1001.80
2023-02-23T01:25:58.764Z,1001.74
2023-02-23T01:26:19.797Z,1001.80
2023-02-23T01:26:40.845Z,1001.74
2023-02-23T01:27:01.890Z,1001.76
2023-02-23T01:27:23.019Z,1001.76
2023-02-23T01:27:44.076Z,1001.74
2023-02-23T01:28:05.131Z,1001.76
2023-02-23T01:28:26.194Z,1001.78
2023-02-23T01:28:47.248Z,1001.76
2023-02-23T01:29:08.297Z,1001.78
2023-02-23T01:29:29.352Z,1001.78
2023-02-23T01:29:50.419Z,1001.74
2023-02-23T01:30:11.465Z,1001.72
2023-02-23T01:30:32.547Z,1001.74
2023-02-23T01:30:53.741Z,1001.78
2023-02-23T01:31:14.898Z,1001.74
2023-02-23T01:31:36.139Z,1001.74
2023-02-23T01:31:57.404Z,1001.74
2023-02-23T01:32:18.560Z,1001.74
2023-02-23T01:32:39.660Z,1001.74
2023-02-23T01:33:00.703Z,1001.74
2023-02-23T01:33:21.848Z,1001.76
2023-02-23T01:33:42.958Z,1001.76
2023-02-23T01:34:03.998Z,1001.74
2023-02-23T01:34:25.136Z,1001.72
2023-02-23T01:34:46.161Z,1001.74
2023-02-23T01:35:07.225Z,1001.72
2023-02-23T01:35:28.292Z,1001.72
2023-02-23T01:35:49.378Z,1001.76
2023-02-23T01:36:10.424Z,1001.72
2023-02-23T01:36:31.482Z,1001.74
2023-02-23T01:36:52.565Z,1001.72
2023-02-23T01:37:13.618Z,1001.72
2023-02-23T01:37:34.678Z,1001.74
2023-02-23T01:37:55.763Z,1001.74
2023-02-23T01:38:16.823Z,1001.74
2023-02-23T01:38:37.914Z,1001.74
2023-02-23T01:38:58.945Z,1001.74
2023-02-23T01:39:20.036Z,1001.74
2023-02-23T01:39:41.076Z,1001.72
2023-02-23T01:40:02.108Z,1001.74
2023-02-23T01:40:23.166Z,1001.72
2023-02-23T01:40:44.219Z,1001.72
2023-02-23T01:41:05.310Z,1001.72
2023-02-23T01:41:26.349Z,1001.72
2023-02-23T01:41:47.406Z,1001.72
2023-02-23T01:42:08.461Z,1001.74
2023-02-23T01:42:29.528Z,1001.68
2023-02-23T01:42:50.567Z,1001.70
2023-02-23T01:43:11.702Z,1001.68
2023-02-23T01:43:32.803Z,1001.70
2023-02-23T01:43:53.836Z,1001.72
2023-02-23T01:44:14.907Z,1001.72
2023-02-23T01:44:35.960Z,1001.72
2023-02-23T01:44:57.061Z,1001.68
2023-02-23T01:45:18.127Z,1001.70
2023-02-23T01:45:39.226Z,1001.70
2023-02-23T01:46:00.298Z,1001.68
2023-02-23T01:46:21.332Z,1001.72
2023-02-23T01:46:42.406Z,1001.72
2023-02-23T01:47:03.465Z,1001.72
2023-02-23T01:47:24.534Z,1001.70
2023-02-23T01:47:45.596Z,1001.70
2023-02-23T01:48:06.646Z,1001.72
2023-02-23T01:48:27.736Z,1001.72
2023-02-23T01:48:48.775Z,1001.72
2023-02-23T01:49:09.841Z,1001.70
2023-02-23T01:49:30.942Z,1001.70
2023-02-23T01:49:51.974Z,1001.72
2023-02-23T01:50:13.049Z,1001.68
2023-02-23T01:50:34.154Z,1001.70
2023-02-23T01:50:55.184Z,1001.74
2023-02-23T01:51:16.415Z,1001.72
2023-02-23T01:51:37.536Z,1001.68
2023-02-23T01:51:58.646Z,1001.72
2023-02-23T01:52:19.720Z,1001.70
2023-02-23T01:52:40.750Z,1001.68
2023-02-23T01:53:01.814Z,1001.72
2023-02-23T01:53:22.888Z,1001.70
2023-02-23T01:53:44.118Z,1001.68
2023-02-23T01:54:05.172Z,1001.72
2023-02-23T01:54:26.233Z,1001.72
2023-02-23T01:54:47.296Z,1001.70
2023-02-23T01:55:08.389Z,1001.70
2023-02-23T01:55:29.415Z,1001.72
2023-02-23T01:55:50.471Z,1001.70
2023-02-23T01:56:11.534Z,1001.70
2023-02-23T01:56:32.583Z,1001.72
2023-02-23T01:56:53.644Z,1001.72
2023-02-23T01:57:14.736Z,1001.70
2023-02-23T01:57:35.782Z,1001.70
2023-02-23T01:57:56.837Z,1001.70
2023-02-23T01:58:17.897Z,1001.70
2023-02-23T01:58:38.949Z,1001.72
2023-02-23T01:59:00.028Z,1001.70
2023-02-23T01:59:21.094Z,1001.70
2023-02-23T01:59:42.150Z,1001.68
2023-02-23T02:00:03.188Z,1001.70
2023-02-23T02:00:24.254Z,1001.68
2023-02-23T02:00:47.466Z,1001.68
2023-02-23T02:01:08.546Z,1001.70
2023-02-23T02:01:29.675Z,1001.68
2023-02-23T02:01:50.829Z,1001.68
2023-02-23T02:02:11.900Z,1001.66
2023-02-23T02:02:33.008Z,1001.66
2023-02-23T02:02:54.030Z,1001.68
2023-02-23T02:03:15.074Z,1001.70
2023-02-23T02:03:36.185Z,1001.66
2023-02-23T02:03:57.250Z,1001.68
2023-02-23T02:04:18.375Z,1001.66
2023-02-23T02:04:39.473Z,1001.64
2023-02-23T02:05:00.571Z,1001.68
2023-02-23T02:05:21.637Z,1001.68
2023-02-23T02:05:42.704Z,1001.68
2023-02-23T02:06:03.765Z,1001.68
2023-02-23T02:06:24.837Z,1001.68
2023-02-23T02:06:45.894Z,1001.66
2023-02-23T02:07:06.971Z,1001.66
2023-02-23T02:07:28.030Z,1001.68
2023-02-23T02:07:49.067Z,1001.68
2023-02-23T02:08:10.125Z,1001.66
2023-02-23T02:08:31.184Z,1001.64
2023-02-23T02:08:52.259Z,1001.63
2023-02-23T02:09:13.324Z,1001.70
2023-02-23T02:09:34.533Z,1001.68
2023-02-23T02:09:55.584Z,1001.66
2023-02-23T02:10:16.651Z,1001.68
2023-02-23T02:10:37.702Z,1001.64
2023-02-23T02:10:58.768Z,1001.66
2023-02-23T02:11:20.068Z,1001.66
2023-02-23T02:11:41.313Z,1001.61
2023-02-23T02:12:02.392Z,1001.64
2023-02-23T02:12:23.466Z,1001.66
2023-02-23T02:12:44.527Z,1001.66
2023-02-23T02:13:05.581Z,1001.64
2023-02-23T02:13:26.636Z,1001.64
2023-02-23T02:13:47.690Z,1001.64
2023-02-23T02:14:08.755Z,1001.66
2023-02-23T02:14:29.821Z,1001.66
2023-02-23T02:14:51.037Z,1001.64
2023-02-23T02:15:12.088Z,1001.64
2023-02-23T02:15:33.158Z,1001.64
2023-02-23T02:15:54.248Z,1001.66
2023-02-23T02:16:15.312Z,1001.64
2023-02-23T02:16:36.370Z,1001.63
2023-02-23T02:16:57.471Z,1001.68
2023-02-23T02:17:18.541Z,1001.64
2023-02-23T02:17:39.598Z,1001.64
2023-02-23T02:18:00.663Z,1001.64
2023-02-23T02:18:21.733Z,1001.64
2023-02-23T02:18:42.996Z,1001.66
2023-02-23T02:19:04.048Z,1001.64
2023-02-23T02:19:25.097Z,1001.64
2023-02-23T02:19:46.144Z,1001.64
2023-02-23T02:20:07.432Z,1001.64
2023-02-23T02:20:28.465Z,1001.66
2023-02-23T02:20:49.561Z,1001.63
2023-02-23T02:21:10.615Z,1001.63
2023-02-23T02:21:31.680Z,1001.63
2023-02-23T02:21:52.744Z,1001.64
2023-02-23T02:22:13.827Z,1001.66
2023-02-23T02:22:34.862Z,1001.66
2023-02-23T02:22:55.997Z,1001.63
2023-02-23T02:23:17.015Z,1001.61
2023-02-23T02:23:38.092Z,1001.63
2023-02-23T02:23:59.116Z,1001.61
2023-02-23T02:24:20.192Z,1001.61
2023-02-23T02:24:41.283Z,1001.61
2023-02-23T02:25:02.424Z,1001.63
2023-02-23T02:25:23.651Z,1001.61
2023-02-23T02:25:44.742Z,1001.61
2023-02-23T02:26:05.788Z,1001.61
2023-02-23T02:26:26.869Z,1001.63
2023-02-23T02:26:47.899Z,1001.61
2023-02-23T02:27:08.976Z,1001.61
2023-02-23T02:27:30.026Z,1001.61
2023-02-23T02:27:51.130Z,1001.61
2023-02-23T02:28:12.165Z,1001.61
2023-02-23T02:28:33.223Z,1001.61
2023-02-23T02:28:54.311Z,1001.61
2023-02-23T02:29:15.358Z,1001.57
2023-02-23T02:29:36.417Z,1001.59
2023-02-23T02:29:57.514Z,1001.59
2023-02-23T02:30:18.529Z,1001.61
2023-02-23T02:30:39.810Z,1001.61
2023-02-23T02:31:01.044Z,1001.61
2023-02-23T02:31:22.497Z,1001.59
2023-02-23T02:31:43.619Z,1001.61
2023-02-23T02:32:04.748Z,1001.59
2023-02-23T02:32:25.809Z,1001.55
2023-02-23T02:32:46.855Z,1001.59
2023-02-23T02:33:07.906Z,1001.61
2023-02-23T02:33:28.975Z,1001.55
2023-02-23T02:33:50.017Z,1001.57
2023-02-23T02:34:11.098Z,1001.55
2023-02-23T02:34:32.150Z,1001.55
2023-02-23T02:34:53.207Z,1001.61
2023-02-23T02:35:14.289Z,1001.55
2023-02-23T02:35:35.334Z,1001.55
2023-02-23T02:35:56.404Z,1001.55
2023-02-23T02:36:17.469Z,1001.57
2023-02-23T02:36:38.561Z,1001.55
2023-02-23T02:36:59.598Z,1001.55
2023-02-23T02:37:20.702Z,1001.57
2023-02-23T02:37:41.757Z,1001.57
2023-02-23T02:38:02.814Z,1001.55
2023-02-23T02:38:23.872Z,1001.53
2023-02-23T02:38:44.937Z,1001.57
2023-02-23T02:39:06.003Z,1001.53
2023-02-23T02:39:27.054Z,1001.57
2023-02-23T02:39:48.117Z,1001.53
2023-02-23T02:40:09.184Z,1001.53
2023-02-23T02:40:30.232Z,1001.53
2023-02-23T02:40:51.287Z,1001.53
2023-02-23T02:41:12.409Z,1001.55
2023-02-23T02:41:33.438Z,1001.53
2023-02-23T02:41:54.495Z,1001.53
2023-02-23T02:42:15.550Z,1001.53
2023-02-23T02:42:36.618Z,1001.53
2023-02-23T02:42:57.678Z,1001.53
2023-02-23T02:43:18.761Z,1001.53
2023-02-23T02:43:39.827Z,1001.53
2023-02-23T02:44:00.880Z,1001.53
2023-02-23T02:44:21.936Z,1001.57
2023-02-23T02:44:42.995Z,1001.55
2023-02-23T02:45:04.073Z,1001.51
2023-02-23T02:45:25.134Z,1001.49
2023-02-23T02:45:46.192Z,1001.53
2023-02-23T02:46:07.315Z,1001.51
2023-02-23T02:46:28.394Z,1001.51
2023-02-23T02:46:49.458Z,1001.51
2023-02-23T02:47:10.544Z,1001.51
2023-02-23T02:47:31.596Z,1001.51
2023-02-23T02:47:52.663Z,1001.49
2023-02-23T02:48:13.764Z,1001.51
2023-02-23T02:48:34.807Z,1001.53
2023-02-23T02:48:55.868Z,1001.51
2023-02-23T02:49:16.988Z,1001.53
2023-02-23T02:49:38.018Z,1001.51
2023-02-23T02:49:59.087Z,1001.51
2023-02-23T02:50:20.134Z,1001.51
2023-02-23T02:50:41.196Z,1001.51
2023-02-23T02:51:02.257Z,1001.53
2023-02-23T02:51:23.381Z,1001.53
2023-02-23T02:51:44.568Z,1001.51
2023-02-23T02:52:05.610Z,1001.49
2023-02-23T02:52:26.712Z,1001.49
2023-02-23T02:52:47.749Z,1001.51
2023-02-23T02:53:08.806Z,1001.51
2023-02-23T02:53:29.923Z,1001.51
2023-02-23T02:53:50.947Z,1001.51
2023-02-23T02:54:12.006Z,1001.49
2023-02-23T02:54:33.072Z,1001.49
2023-02-23T02:54:54.128Z,1001.51
2023-02-23T02:55:15.169Z,1001.49
2023-02-23T02:55:36.263Z,1001.49
2023-02-23T02:55:57.404Z,1001.49
2023-02-23T02:56:18.428Z,1001.49
2023-02-23T02:56:39.483Z,1001.47
2023-02-23T02:57:00.748Z,1001.53
2023-02-23T02:57:21.813Z,1001.47
2023-02-23T02:57:42.868Z,1001.51
2023-02-23T02:58:03.940Z,1001.49
2023-02-23T02:58:24.991Z,1001.47
2023-02-23T02:58:46.032Z,1001.47
2023-02-23T02:59:07.087Z,1001.49
2023-02-23T02:59:28.157Z,1001.51
2023-02-23T02:59:49.228Z,1001.51
2023-02-23T03:00:10.290Z,1001.47
2023-02-23T03:00:31.364Z,1001.49
2023-02-23T03:00:52.418Z,1001.49
2023-02-23T03:01:13.572Z,1001.47
2023-02-23T03:01:34.664Z,1001.47
2023-02-23T03:01:55.795Z,1001.45
2023-02-23T03:02:16.860Z,1001.49
2023-02-23T03:02:37.916Z,1001.47
2023-02-23T03:02:58.987Z,1001.47
2023-02-23T03:03:20.026Z,1001.47
2023-02-23T03:03:41.103Z,1001.47
2023-02-23T03:04:02.141Z,1001.47
2023-02-23T03:04:23.205Z,1001.45
2023-02-23T03:04:44.258Z,1001.47
2023-02-23T03:05:05.404Z,1001.47
2023-02-23T03:05:26.453Z,1001.47
2023-02-23T03:05:47.485Z,1001.45
2023-02-23T03:06:08.552Z,1001.47
2023-02-23T03:06:29.607Z,1001.43
2023-02-23T03:06:50.673Z,1001.43
2023-02-23T03:07:11.721Z,1001.45
2023-02-23T03:07:32.986Z,1001.43
2023-02-23T03:07:54.001Z,1001.47
2023-02-23T03:08:15.065Z,1001.47
2023-02-23T03:08:36.130Z,1001.43
2023-02-23T03:08:57.181Z,1001.41
2023-02-23T03:09:18.277Z,1001.41
2023-02-23T03:09:39.341Z,1001.41
2023-02-23T03:10:00.419Z,1001.41
2023-02-23T03:10:21.474Z,1001.43
2023-02-23T03:10:42.531Z,1001.43
2023-02-23T03:11:03.593Z,1001.43
2023-02-23T03:11:24.660Z,1001.41
2023-02-23T03:11:45.717Z,1001.43
2023-02-23T03:12:06.763Z,1001.41
2023-02-23T03:12:27.819Z,1001.41
2023-02-23T03:12:49.053Z,1001.43
2023-02-23T03:13:10.115Z,1001.41
2023-02-23T03:13:31.244Z,1001.41
2023-02-23T03:13:52.282Z,1001.43
2023-02-23T03:14:13.355Z,1001.39
2023-02-23T03:14:34.410Z,1001.41
2023-02-23T03:14:55.461Z,1001.39
2023-02-23T03:15:16.531Z,1001.39
2023-02-23T03:15:37.602Z,1001.39
2023-02-23T03:15:58.725Z,1001.39
2023-02-23T03:16:19.804Z,1001.39
2023-02-23T03:16:40.837Z,1001.39
2023-02-23T03:17:01.904Z,1001.39
2023-02-23T03:17:22.965Z,1001.39
2023-02-23T03:17:44.014Z,1001.39
2023-02-23T03:18:05.128Z,1001.39
2023-02-23T03:18:26.223Z,1001.39
2023-02-23T03:18:47.237Z,1001.39
2023-02-23T03:19:08.296Z,1001.39
2023-02-23T03:19:29.352Z,1001.39
2023-02-23T03:19:50.431Z,1001.39
2023-02-23T03:20:11.511Z,1001.41
2023-02-23T03:20:32.546Z,1001.39
2023-02-23T03:20:53.607Z,1001.37
2023-02-23T03:21:14.716Z,1001.39
2023-02-23T03:21:35.796Z,1001.41
2023-02-23T03:21:56.833Z,1001.39
2023-02-23T03:22:17.889Z,1001.43
2023-02-23T03:22:39.028Z,1001.41
2023-02-23T03:23:00.034Z,1001.39
2023-02-23T03:23:21.124Z,1001.41
2023-02-23T03:23:42.182Z,1001.41
2023-02-23T03:24:03.235Z,1001.41
2023-02-23T03:24:24.329Z,1001.39
2023-02-23T03:24:45.366Z,1001.43
2023-02-23T03:25:06.429Z,1001.43
2023-02-23T03:25:27.470Z,1001.41
2023-02-23T03:25:48.536Z,1001.43
2023-02-23T03:26:09.605Z,1001.41
2023-02-23T03:26:30.645Z,1001.39
2023-02-23T03:26:51.718Z,1001.45
2023-02-23T03:27:12.776Z,1001.43
2023-02-23T03:27:33.849Z,1001.45
2023-02-23T03:27:54.895Z,1001.43
2023-02-23T03:28:15.960Z,1001.43
2023-02-23T03:28:37.049Z,1001.45
2023-02-23T03:28:58.113Z,1001.45
2023-02-23T03:29:19.246Z,1001.43
2023-02-23T03:29:40.274Z,1001.45
2023-02-23T03:30:01.333Z,1001.41
2023-02-23T03:30:22.384Z,1001.43
2023-02-23T03:30:43.469Z,1001.49
2023-02-23T03:31:04.515Z,1001.45
2023-02-23T03:31:25.679Z,1001.45
2023-02-23T03:31:46.796Z,1001.45
2023-02-23T03:32:07.955Z,1001.45
2023-02-23T03:32:29.220Z,1001.47
2023-02-23T03:32:50.260Z,1001.49
2023-02-23T03:33:11.336Z,1001.47
2023-02-23T03:33:32.388Z,1001.47
2023-02-23T03:33:53.493Z,1001.49
2023-02-23T03:34:14.545Z,1001.49
2023-02-23T03:34:35.581Z,1001.49
2023-02-23T03:34:56.653Z,1001.49
2023-02-23T03:35:17.709Z,1001.49
2023-02-23T03:35:38.766Z,1001.49
2023-02-23T03:35:59.825Z,1001.45
2023-02-23T03:36:20.889Z,1001.49
2023-02-23T03:36:41.967Z,1001.51
2023-02-23T03:37:03.002Z,1001.43
2023-02-23T03:37:24.062Z,1001.45
2023-02-23T03:37:45.142Z,1001.49
2023-02-23T03:38:06.182Z,1001.47
2023-02-23T03:38:27.252Z,1001.51
2023-02-23T03:38:48.296Z,1001.51
2023-02-23T03:39:09.533Z,1001.51
2023-02-23T03:39:30.601Z,1001.49
2023-02-23T03:39:51.649Z,1001.45
2023-02-23T03:40:12.712Z,1001.45
2023-02-23T03:40:33.765Z,1001.51
2023-02-23T03:40:54.849Z,1001.47
2023-02-23T03:41:16.219Z,1001.51
2023-02-23T03:41:37.344Z,1001.47
2023-02-23T03:41:58.453Z,1001.49
2023-02-23T03:42:19.522Z,1001.49
2023-02-23T03:42:40.578Z,1001.49
2023-02-23T03:43:01.651Z,1001.51
2023-02-23T03:43:22.717Z,1001.49
2023-02-23T03:43:43.793Z,1001.49
2023-02-23T03:44:04.882Z,1001.51
2023-02-23T03:44:25.945Z,1001.51
2023-02-23T03:44:47.006Z,1001.51
2023-02-23T03:45:08.073Z,1001.51
2023-02-23T03:45:29.180Z,1001.49
2023-02-23T03:45:50.323Z,1001.49
2023-02-23T03:46:11.386Z,1001.51
2023-02-23T03:46:32.431Z,1001.53
2023-02-23T03:46:53.510Z,1001.53
2023-02-23T03:47:14.582Z,1001.53
2023-02-23T03:47:35.661Z,1001.55
2023-02-23T03:47:56.717Z,1001.53
2023-02-23T03:48:17.781Z,1001.53
2023-02-23T03:48:38.831Z,1001.53
2023-02-23T03:48:59.919Z,1001.51
2023-02-23T03:49:20.961Z,1001.53
2023-02-23T03:49:42.181Z,1001.53
2023-02-23T03:50:03.311Z,1001.53
2023-02-23T03:50:24.334Z,1001.55
2023-02-23T03:50:45.400Z,1001.53
2023-02-23T03:51:06.456Z,1001.53
2023-02-23T03:51:27.518Z,1001.55
2023-02-23T03:51:48.656Z,1001.53
2023-02-23T03:52:09.686Z,1001.53
2023-02-23T03:52:30.743Z,1001.53
2023-02-23T03:52:51.817Z,1001.55
2023-02-23T03:53:12.883Z,1001.55
2023-02-23T03:53:33.925Z,1001.55
2023-02-23T03:53:54.974Z,1001.55
2023-02-23T03:54:16.027Z,1001.55
2023-02-23T03:54:37.097Z,1001.57
2023-02-23T03:54:58.351Z,1001.55
2023-02-23T03:55:19.423Z,1001.57
2023-02-23T03:55:40.474Z,1001.59
2023-02-23T03:56:01.533Z,1001.57
2023-02-23T03:56:22.601Z,1001.57
2023-02-23T03:56:43.815Z,1001.57
2023-02-23T03:57:04.854Z,1001.59
2023-02-23T03:57:25.913Z,1001.57
2023-02-23T03:57:46.979Z,1001.57
2023-02-23T03:58:08.031Z,1001.59
2023-02-23T03:58:29.120Z,1001.59
2023-02-23T03:58:50.162Z,1001.59
2023-02-23T03:59:11.212Z,1001.59
2023-02-23T03:59:32.265Z,1001.57
2023-02-23T03:59:53.345Z,1001.59
2023-02-23T04:00:14.408Z,1001.59
2023-02-23T04:00:35.474Z,1001.59
2023-02-23T04:00:56.548Z,1001.59
2023-02-23T04:01:17.949Z,1001.57
2023-02-23T04:01:39.203Z,1001.59
2023-02-23T04:02:00.293Z,1001.55
2023-02-23T04:02:21.347Z,1001.59
2023-02-23T04:02:42.450Z,1001.59
2023-02-23T04:03:03.476Z,1001.59
2023-02-23T04:03:24.677Z,1001.59
2023-02-23T04:03:45.800Z,1001.57
2023-02-23T04:04:06.853Z,1001.57
2023-02-23T04:04:27.909Z,1001.59
2023-02-23T04:04:48.975Z,1001.57
2023-02-23T04:05:10.012Z,1001.57
2023-02-23T04:05:31.097Z,1001.57
2023-02-23T04:05:52.173Z,1001.57
2023-02-23T04:06:13.224Z,1001.55
2023-02-23T04:06:34.287Z,1001.55
2023-02-23T04:06:55.354Z,1001.57
2023-02-23T04:07:16.395Z,1001.57
2023-02-23T04:07:37.454Z,1001.55
2023-02-23T04:07:58.550Z,1001.57
2023-02-23T04:08:19.573Z,1001.55
2023-02-23T04:08:40.628Z,1001.55
2023-02-23T04:09:01.733Z,1001.61
2023-02-23T04:09:22.750Z,1001.57
2023-02-23T04:09:43.820Z,1001.55
2023-02-23T04:10:04.865Z,1001.55
2023-02-23T04:10:25.917Z,1001.57
2023-02-23T04:10:46.993Z,1001.57
2023-02-23T04:11:08.048Z,1001.55
2023-02-23T04:11:29.094Z,1001.55
2023-02-23T04:11:50.201Z,1001.57
2023-02-23T04:12:11.280Z,1001.55
2023-02-23T04:12:32.311Z,1001.57
2023-02-23T04:12:53.369Z,1001.55
2023-02-23T04:13:14.422Z,1001.57
2023-02-23T04:13:35.491Z,1001.55
2023-02-23T04:13:56.566Z,1001.57
2023-02-23T04:14:17.619Z,1001.55
2023-02-23T04:14:38.711Z,1001.55
2023-02-23T04:14:59.746Z,1001.61